EZY74KA EGMC-LEPA
Flight info
| Callsign | EZY74KA |
|---|---|
| Flight time | 1h 59m |
| Altitude | 34000 |
| Route | DET M604 LYD UM189 WAFFU DCT SITET/N0437F350 UN859 SOPIL DCT BALAN DCT EVPOK DCT NARAK DCT GAI DCT LOMRA DCT ROCAN DCT IBRAP DCT LUKEV DCT LORES |
| Aircraft | A20N/M-SDE2E3FGHIRWXY/LB1 |
Departure
| Time | 2026-04-17 11:43 |
|---|---|
| Airport | London Southend Airport (EGMC) |
Arrival
| Time | 2026-04-17 13:42 |
|---|---|
| Airport | Palma de Mallorca Airport (LEPA) |
| Time | Latitude | Longitude | Altitude | Speed | Heading |
|---|---|---|---|---|---|
| 2026-04-17 11:23 | 51.56881 | 0.70240 | 52 ft | 0 kts | 129° |
| 2026-04-17 11:34 | 51.56891 | 0.70221 | 52 ft | 2 kts | 128° |
| 2026-04-17 11:34 | 51.56901 | 0.70199 | 52 ft | 2 kts | 123° |
| 2026-04-17 11:35 | 51.56908 | 0.70175 | 51 ft | 2 kts | 96° |
| 2026-04-17 11:35 | 51.56904 | 0.70153 | 49 ft | 1 kts | 56° |
| 2026-04-17 11:35 | 51.56903 | 0.70150 | 49 ft | 0 kts | 55° |
| 2026-04-17 11:37 | 51.56948 | 0.70195 | 52 ft | 9 kts | 9° |
| 2026-04-17 11:37 | 51.57061 | 0.70212 | 52 ft | 26 kts | 3° |
| 2026-04-17 11:37 | 51.57222 | 0.70229 | 52 ft | 15 kts | 3° |
| 2026-04-17 11:37 | 51.57290 | 0.70292 | 52 ft | 10 kts | 53° |
| 2026-04-17 11:38 | 51.57329 | 0.70380 | 52 ft | 9 kts | 54° |
| 2026-04-17 11:38 | 51.57371 | 0.70437 | 51 ft | 1 kts | 13° |
| 2026-04-17 11:39 | 51.57387 | 0.70443 | 52 ft | 10 kts | 12° |
| 2026-04-17 11:39 | 51.57419 | 0.70454 | 52 ft | 0 kts | 11° |
| 2026-04-17 11:42 | 51.57529 | 0.70442 | 51 ft | 11 kts | 292° |
| 2026-04-17 11:42 | 51.57513 | 0.70372 | 52 ft | 5 kts | 233° |
| 2026-04-17 11:42 | 51.57478 | 0.70294 | 52 ft | 29 kts | 234° |
| 2026-04-17 11:43 | 51.57228 | 0.69739 | 52 ft | 93 kts | 234° |
| 2026-04-17 11:43 | 51.56730 | 0.68641 | 58 ft | 146 kts | 232° |
| 2026-04-17 11:43 | 51.56128 | 0.67368 | 668 ft | 139 kts | 229° |
| 2026-04-17 11:43 | 51.55063 | 0.66635 | 1578 ft | 140 kts | 170° |
| 2026-04-17 11:44 | 51.54092 | 0.67514 | 1979 ft | 181 kts | 144° |
| 2026-04-17 11:44 | 51.53422 | 0.68507 | 2218 ft | 207 kts | 140° |
| 2026-04-17 11:44 | 51.52242 | 0.70171 | 2547 ft | 241 kts | 147° |
| 2026-04-17 11:44 | 51.50793 | 0.71621 | 3350 ft | 249 kts | 157° |
| 2026-04-17 11:45 | 51.49184 | 0.72709 | 4268 ft | 253 kts | 165° |
| 2026-04-17 11:45 | 51.47481 | 0.73499 | 5176 ft | 256 kts | 171° |
| 2026-04-17 11:45 | 51.45708 | 0.73838 | 6021 ft | 259 kts | 185° |
| 2026-04-17 11:45 | 51.43917 | 0.73479 | 6840 ft | 262 kts | 194° |
| 2026-04-17 11:46 | 51.42222 | 0.72812 | 7627 ft | 264 kts | 199° |
| 2026-04-17 11:46 | 51.40415 | 0.71882 | 8557 ft | 266 kts | 202° |
| 2026-04-17 11:46 | 51.38665 | 0.70868 | 9428 ft | 269 kts | 204° |
| 2026-04-17 11:46 | 51.36899 | 0.69806 | 10305 ft | 272 kts | 204° |
| 2026-04-17 11:47 | 51.35074 | 0.68704 | 10790 ft | 290 kts | 203° |
| 2026-04-17 11:47 | 51.33110 | 0.67536 | 10902 ft | 311 kts | 203° |
| 2026-04-17 11:47 | 51.31039 | 0.66333 | 11470 ft | 321 kts | 202° |
| 2026-04-17 11:47 | 51.28955 | 0.65149 | 12243 ft | 324 kts | 202° |
| 2026-04-17 11:48 | 51.26821 | 0.63951 | 13099 ft | 326 kts | 202° |
| 2026-04-17 11:48 | 51.24674 | 0.62752 | 13912 ft | 328 kts | 202° |
| 2026-04-17 11:48 | 51.22504 | 0.61541 | 14579 ft | 333 kts | 202° |
| 2026-04-17 11:48 | 51.20314 | 0.60318 | 15254 ft | 337 kts | 202° |
| 2026-04-17 11:49 | 51.18090 | 0.59075 | 15938 ft | 341 kts | 202° |
| 2026-04-17 11:49 | 51.15840 | 0.57817 | 16620 ft | 345 kts | 202° |
| 2026-04-17 11:49 | 51.13563 | 0.56544 | 17301 ft | 349 kts | 202° |
| 2026-04-17 11:49 | 51.11263 | 0.55259 | 17961 ft | 353 kts | 202° |
| 2026-04-17 11:50 | 51.08935 | 0.53960 | 18572 ft | 356 kts | 202° |
| 2026-04-17 11:50 | 51.06589 | 0.52652 | 19208 ft | 358 kts | 202° |
| 2026-04-17 11:50 | 51.04227 | 0.51338 | 19840 ft | 361 kts | 202° |
| 2026-04-17 11:50 | 51.01845 | 0.50012 | 20455 ft | 364 kts | 202° |
| 2026-04-17 11:51 | 50.99444 | 0.48678 | 21062 ft | 367 kts | 202° |
| 2026-04-17 11:51 | 50.97024 | 0.47335 | 21690 ft | 370 kts | 202° |
| 2026-04-17 11:51 | 50.94588 | 0.45985 | 22304 ft | 372 kts | 202° |
| 2026-04-17 11:51 | 50.92135 | 0.44627 | 22907 ft | 375 kts | 202° |
| 2026-04-17 11:52 | 50.89661 | 0.43259 | 23508 ft | 378 kts | 202° |
| 2026-04-17 11:52 | 50.87170 | 0.41882 | 24022 ft | 380 kts | 202° |
| 2026-04-17 11:52 | 50.84664 | 0.40498 | 24490 ft | 383 kts | 202° |
| 2026-04-17 11:52 | 50.82135 | 0.39104 | 24959 ft | 386 kts | 202° |
| 2026-04-17 11:53 | 50.79596 | 0.37705 | 25387 ft | 388 kts | 202° |
| 2026-04-17 11:53 | 50.77036 | 0.36298 | 25790 ft | 390 kts | 202° |
| 2026-04-17 11:53 | 50.74465 | 0.34885 | 26184 ft | 393 kts | 202° |
| 2026-04-17 11:53 | 50.71873 | 0.33463 | 26577 ft | 395 kts | 202° |
| 2026-04-17 11:54 | 50.69285 | 0.32045 | 26965 ft | 397 kts | 202° |
| 2026-04-17 11:54 | 50.66651 | 0.30603 | 27345 ft | 400 kts | 202° |
| 2026-04-17 11:54 | 50.64017 | 0.29163 | 27708 ft | 402 kts | 202° |
| 2026-04-17 11:54 | 50.61362 | 0.27713 | 28068 ft | 404 kts | 202° |
| 2026-04-17 11:55 | 50.58703 | 0.26262 | 28416 ft | 406 kts | 202° |
| 2026-04-17 11:55 | 50.56027 | 0.24805 | 28772 ft | 408 kts | 202° |
| 2026-04-17 11:55 | 50.53330 | 0.23337 | 29111 ft | 411 kts | 202° |
| 2026-04-17 11:55 | 50.50623 | 0.21866 | 29436 ft | 413 kts | 202° |
| 2026-04-17 11:56 | 50.47940 | 0.20409 | 29759 ft | 415 kts | 202° |
| 2026-04-17 11:56 | 50.45170 | 0.18907 | 30080 ft | 417 kts | 202° |
| 2026-04-17 11:56 | 50.42420 | 0.17418 | 30395 ft | 418 kts | 202° |
| 2026-04-17 11:56 | 50.39680 | 0.15937 | 30754 ft | 417 kts | 202° |
| 2026-04-17 11:57 | 50.36932 | 0.14454 | 31104 ft | 417 kts | 202° |
| 2026-04-17 11:57 | 50.34191 | 0.12977 | 31434 ft | 417 kts | 202° |
| 2026-04-17 11:57 | 50.31486 | 0.11519 | 31760 ft | 416 kts | 202° |
| 2026-04-17 11:57 | 50.28752 | 0.10048 | 32087 ft | 416 kts | 202° |
| 2026-04-17 11:58 | 50.26017 | 0.08578 | 32401 ft | 415 kts | 202° |
| 2026-04-17 11:58 | 50.23286 | 0.07112 | 32716 ft | 415 kts | 202° |
| 2026-04-17 11:58 | 50.20554 | 0.05647 | 33025 ft | 415 kts | 202° |
| 2026-04-17 11:58 | 50.17825 | 0.04185 | 33326 ft | 414 kts | 202° |
| 2026-04-17 11:59 | 50.15097 | 0.02737 | 33638 ft | 414 kts | 200° |
| 2026-04-17 11:59 | 50.12294 | 0.01656 | 33910 ft | 418 kts | 193° |
| 2026-04-17 11:59 | 50.09385 | 0.01219 | 34164 ft | 422 kts | 185° |
| 2026-04-17 11:59 | 50.06448 | 0.01519 | 34222 ft | 424 kts | 175° |
| 2026-04-17 12:00 | 50.00712 | 0.03434 | 34224 ft | 421 kts | 170° |
| 2026-04-17 12:00 | 49.95040 | 0.05762 | 34225 ft | 422 kts | 169° |
| 2026-04-17 12:01 | 49.89366 | 0.08092 | 34224 ft | 422 kts | 170° |
| 2026-04-17 12:01 | 49.83678 | 0.10355 | 34231 ft | 422 kts | 170° |
| 2026-04-17 12:02 | 49.77985 | 0.12581 | 34234 ft | 422 kts | 170° |
| 2026-04-17 12:02 | 49.72290 | 0.14795 | 34238 ft | 422 kts | 170° |
| 2026-04-17 12:03 | 49.66597 | 0.17021 | 34241 ft | 422 kts | 170° |
| 2026-04-17 12:03 | 49.60905 | 0.19309 | 34235 ft | 423 kts | 169° |
| 2026-04-17 12:04 | 49.55208 | 0.21613 | 34231 ft | 423 kts | 169° |
| 2026-04-17 12:04 | 49.49516 | 0.23904 | 34238 ft | 423 kts | 169° |
| 2026-04-17 12:05 | 49.43810 | 0.26190 | 34233 ft | 424 kts | 169° |
| 2026-04-17 12:05 | 49.38102 | 0.28470 | 34236 ft | 424 kts | 169° |
| 2026-04-17 12:06 | 49.32383 | 0.30749 | 34234 ft | 425 kts | 169° |
| 2026-04-17 12:06 | 49.26670 | 0.33098 | 34230 ft | 425 kts | 168° |
| 2026-04-17 12:07 | 49.21002 | 0.35497 | 34237 ft | 426 kts | 168° |
| 2026-04-17 12:07 | 49.15287 | 0.37917 | 34238 ft | 426 kts | 168° |
| 2026-04-17 12:08 | 49.09568 | 0.40323 | 34230 ft | 426 kts | 168° |
| 2026-04-17 12:08 | 49.03848 | 0.42717 | 34240 ft | 426 kts | 168° |
| 2026-04-17 12:09 | 48.98124 | 0.45107 | 34235 ft | 427 kts | 168° |
| 2026-04-17 12:09 | 48.92395 | 0.47493 | 34234 ft | 427 kts | 168° |
| 2026-04-17 12:10 | 48.86665 | 0.49874 | 34235 ft | 427 kts | 168° |
| 2026-04-17 12:10 | 48.80936 | 0.52249 | 34235 ft | 427 kts | 168° |
| 2026-04-17 12:11 | 48.75190 | 0.54572 | 34233 ft | 427 kts | 168° |
| 2026-04-17 12:12 | 48.66553 | 0.57944 | 34234 ft | 427 kts | 168° |
| 2026-04-17 12:12 | 48.60793 | 0.60186 | 34232 ft | 427 kts | 168° |
| 2026-04-17 12:13 | 48.55039 | 0.62427 | 34233 ft | 428 kts | 168° |
| 2026-04-17 12:13 | 48.49275 | 0.64704 | 34228 ft | 428 kts | 168° |
| 2026-04-17 12:14 | 48.43519 | 0.67047 | 34228 ft | 428 kts | 168° |
| 2026-04-17 12:14 | 48.37768 | 0.69395 | 34229 ft | 429 kts | 168° |
| 2026-04-17 12:15 | 48.32043 | 0.71720 | 34226 ft | 429 kts | 168° |
| 2026-04-17 12:15 | 48.26284 | 0.74047 | 34222 ft | 429 kts | 168° |
| 2026-04-17 12:16 | 48.20505 | 0.76346 | 34223 ft | 430 kts | 168° |
| 2026-04-17 12:16 | 48.14720 | 0.78618 | 34227 ft | 430 kts | 168° |
| 2026-04-17 12:17 | 48.08930 | 0.80885 | 34221 ft | 430 kts | 168° |
| 2026-04-17 12:17 | 48.03139 | 0.83151 | 34220 ft | 430 kts | 168° |
| 2026-04-17 12:18 | 47.97344 | 0.85415 | 34216 ft | 431 kts | 168° |
| 2026-04-17 12:18 | 47.91543 | 0.87676 | 34218 ft | 431 kts | 168° |
| 2026-04-17 12:19 | 47.85745 | 0.89932 | 34217 ft | 431 kts | 168° |
| 2026-04-17 12:19 | 47.79940 | 0.92186 | 34217 ft | 431 kts | 168° |
| 2026-04-17 12:20 | 47.74140 | 0.94432 | 34214 ft | 431 kts | 168° |
| 2026-04-17 12:20 | 47.68328 | 0.96676 | 34217 ft | 431 kts | 168° |
| 2026-04-17 12:21 | 47.62528 | 0.98912 | 34213 ft | 432 kts | 168° |
| 2026-04-17 12:21 | 47.56756 | 1.01130 | 34215 ft | 432 kts | 168° |
| 2026-04-17 12:22 | 47.50931 | 1.03364 | 34213 ft | 432 kts | 168° |
| 2026-04-17 12:22 | 47.45107 | 1.05558 | 34211 ft | 431 kts | 171° |
| 2026-04-17 12:23 | 47.39175 | 1.06341 | 34214 ft | 428 kts | 181° |
| 2026-04-17 12:23 | 47.33218 | 1.06313 | 34212 ft | 428 kts | 183° |
| 2026-04-17 12:24 | 47.27267 | 1.06127 | 34212 ft | 428 kts | 183° |
| 2026-04-17 12:24 | 47.21315 | 1.05946 | 34209 ft | 428 kts | 183° |
| 2026-04-17 12:25 | 47.15367 | 1.05794 | 34210 ft | 427 kts | 183° |
| 2026-04-17 12:25 | 47.09418 | 1.05655 | 34210 ft | 428 kts | 183° |
| 2026-04-17 12:26 | 47.03462 | 1.05517 | 34210 ft | 428 kts | 183° |
| 2026-04-17 12:26 | 46.97511 | 1.05308 | 34203 ft | 428 kts | 184° |
| 2026-04-17 12:27 | 46.91569 | 1.05044 | 34202 ft | 428 kts | 184° |
| 2026-04-17 12:27 | 46.85605 | 1.04778 | 34203 ft | 428 kts | 184° |
| 2026-04-17 12:28 | 46.79645 | 1.04520 | 34206 ft | 428 kts | 184° |
| 2026-04-17 12:28 | 46.73685 | 1.04266 | 34205 ft | 429 kts | 184° |
| 2026-04-17 12:29 | 46.67722 | 1.04014 | 34199 ft | 429 kts | 185° |
| 2026-04-17 12:29 | 46.61760 | 1.03761 | 34201 ft | 429 kts | 185° |
| 2026-04-17 12:30 | 46.55823 | 1.03510 | 34196 ft | 430 kts | 185° |
| 2026-04-17 12:30 | 46.49847 | 1.04049 | 34201 ft | 434 kts | 173° |
| 2026-04-17 12:31 | 46.43904 | 1.05815 | 34200 ft | 437 kts | 171° |
| 2026-04-17 12:31 | 46.38940 | 1.07493 | 34201 ft | 438 kts | 170° |
| 2026-04-17 12:32 | 46.33054 | 1.09510 | 34202 ft | 438 kts | 171° |
| 2026-04-17 12:32 | 46.27114 | 1.11512 | 34201 ft | 438 kts | 171° |
| 2026-04-17 12:33 | 46.21169 | 1.13491 | 34203 ft | 439 kts | 171° |
| 2026-04-17 12:33 | 46.15212 | 1.15464 | 34205 ft | 439 kts | 171° |
| 2026-04-17 12:34 | 46.09253 | 1.17433 | 34206 ft | 440 kts | 171° |
| 2026-04-17 12:34 | 46.03286 | 1.19400 | 34202 ft | 440 kts | 171° |
| 2026-04-17 12:35 | 45.97310 | 1.21366 | 34210 ft | 441 kts | 171° |
| 2026-04-17 12:35 | 45.91329 | 1.23331 | 34211 ft | 441 kts | 171° |
| 2026-04-17 12:37 | 45.67316 | 1.31173 | 34204 ft | 444 kts | 172° |
| 2026-04-17 12:38 | 45.61291 | 1.33131 | 34200 ft | 444 kts | 172° |
| 2026-04-17 12:38 | 45.55262 | 1.35085 | 34200 ft | 444 kts | 172° |
| 2026-04-17 12:39 | 45.49228 | 1.37037 | 34203 ft | 445 kts | 172° |
| 2026-04-17 12:39 | 45.43231 | 1.38972 | 34193 ft | 445 kts | 172° |
| 2026-04-17 12:40 | 45.37192 | 1.40915 | 34198 ft | 445 kts | 172° |
| 2026-04-17 12:40 | 45.31148 | 1.42857 | 34192 ft | 446 kts | 172° |
| 2026-04-17 12:41 | 45.25096 | 1.44797 | 34182 ft | 445 kts | 172° |
| 2026-04-17 12:41 | 45.19048 | 1.46734 | 34184 ft | 446 kts | 172° |
| 2026-04-17 12:42 | 45.13004 | 1.48663 | 34181 ft | 446 kts | 172° |
| 2026-04-17 12:42 | 45.06951 | 1.50591 | 34181 ft | 445 kts | 172° |
| 2026-04-17 12:43 | 45.00907 | 1.52512 | 34186 ft | 445 kts | 172° |
| 2026-04-17 12:43 | 44.94856 | 1.54432 | 34185 ft | 445 kts | 172° |
| 2026-04-17 12:44 | 44.88809 | 1.56344 | 34185 ft | 445 kts | 172° |
| 2026-04-17 12:44 | 44.82760 | 1.58254 | 34191 ft | 446 kts | 172° |
| 2026-04-17 12:45 | 44.76711 | 1.60158 | 34191 ft | 445 kts | 172° |
| 2026-04-17 12:45 | 44.70663 | 1.62060 | 34193 ft | 446 kts | 172° |
| 2026-04-17 12:46 | 44.64611 | 1.63960 | 34193 ft | 445 kts | 172° |
| 2026-04-17 12:46 | 44.58565 | 1.65852 | 34192 ft | 445 kts | 172° |
| 2026-04-17 12:47 | 44.52514 | 1.67742 | 34189 ft | 445 kts | 171° |
| 2026-04-17 12:47 | 44.46501 | 1.69616 | 34190 ft | 446 kts | 172° |
| 2026-04-17 12:48 | 44.40407 | 1.71512 | 34182 ft | 445 kts | 171° |
| 2026-04-17 12:48 | 44.34395 | 1.73378 | 34183 ft | 445 kts | 171° |
| 2026-04-17 12:49 | 44.28342 | 1.75197 | 34189 ft | 444 kts | 173° |
| 2026-04-17 12:49 | 44.22256 | 1.76618 | 34190 ft | 443 kts | 175° |
| 2026-04-17 12:50 | 44.16152 | 1.77902 | 34181 ft | 443 kts | 175° |
| 2026-04-17 12:50 | 44.10057 | 1.79201 | 34185 ft | 443 kts | 175° |
| 2026-04-17 12:51 | 44.03967 | 1.80529 | 34178 ft | 443 kts | 175° |
| 2026-04-17 12:51 | 43.97874 | 1.81868 | 34183 ft | 443 kts | 175° |
| 2026-04-17 12:52 | 43.91774 | 1.82927 | 34178 ft | 441 kts | 179° |
| 2026-04-17 12:52 | 43.85653 | 1.83498 | 34185 ft | 440 kts | 180° |
| 2026-04-17 12:53 | 43.79641 | 1.83992 | 34183 ft | 440 kts | 180° |
| 2026-04-17 12:53 | 43.73447 | 1.84549 | 34169 ft | 440 kts | 180° |
| 2026-04-17 12:54 | 43.67340 | 1.85134 | 34184 ft | 440 kts | 179° |
| 2026-04-17 12:54 | 43.61270 | 1.85723 | 34182 ft | 440 kts | 179° |
| 2026-04-17 12:55 | 43.55161 | 1.86314 | 34178 ft | 440 kts | 179° |
| 2026-04-17 12:55 | 43.49058 | 1.86901 | 34171 ft | 440 kts | 179° |
| 2026-04-17 12:56 | 43.42948 | 1.87487 | 34164 ft | 440 kts | 179° |
| 2026-04-17 12:56 | 43.36838 | 1.88073 | 34156 ft | 440 kts | 179° |
| 2026-04-17 12:57 | 43.30728 | 1.88657 | 34155 ft | 440 kts | 179° |
| 2026-04-17 12:57 | 43.24622 | 1.89241 | 34156 ft | 440 kts | 179° |
| 2026-04-17 12:58 | 43.18516 | 1.89825 | 34156 ft | 440 kts | 179° |
| 2026-04-17 12:58 | 43.12403 | 1.90408 | 34155 ft | 440 kts | 179° |
| 2026-04-17 12:59 | 43.06283 | 1.90989 | 34160 ft | 441 kts | 179° |
| 2026-04-17 12:59 | 43.00210 | 1.91566 | 34163 ft | 441 kts | 179° |
| 2026-04-17 13:00 | 42.94107 | 1.92142 | 34159 ft | 441 kts | 179° |
| 2026-04-17 13:00 | 42.87970 | 1.92723 | 34168 ft | 442 kts | 179° |
| 2026-04-17 13:01 | 42.81838 | 1.93301 | 34167 ft | 442 kts | 179° |
| 2026-04-17 13:01 | 42.75714 | 1.93878 | 34175 ft | 443 kts | 179° |
| 2026-04-17 13:02 | 42.69567 | 1.94463 | 34167 ft | 443 kts | 178° |
| 2026-04-17 13:02 | 42.63491 | 1.96047 | 34171 ft | 446 kts | 169° |
| 2026-04-17 13:03 | 42.57468 | 1.98147 | 34166 ft | 447 kts | 168° |
| 2026-04-17 13:03 | 42.51464 | 2.00341 | 34158 ft | 448 kts | 168° |
| 2026-04-17 13:04 | 42.45436 | 2.02534 | 34161 ft | 449 kts | 168° |
| 2026-04-17 13:04 | 42.39404 | 2.04703 | 34166 ft | 449 kts | 168° |
| 2026-04-17 13:05 | 42.33367 | 2.06858 | 34150 ft | 449 kts | 168° |
| 2026-04-17 13:05 | 42.27325 | 2.09004 | 34151 ft | 449 kts | 168° |
| 2026-04-17 13:06 | 42.21289 | 2.11143 | 34147 ft | 449 kts | 168° |
| 2026-04-17 13:06 | 42.15278 | 2.13269 | 34144 ft | 449 kts | 168° |
| 2026-04-17 13:07 | 42.09292 | 2.15385 | 34141 ft | 449 kts | 168° |
| 2026-04-17 13:07 | 42.03195 | 2.17535 | 34142 ft | 449 kts | 168° |
| 2026-04-17 13:08 | 41.97149 | 2.19661 | 34142 ft | 449 kts | 168° |
| 2026-04-17 13:08 | 41.91093 | 2.21788 | 34143 ft | 450 kts | 168° |
| 2026-04-17 13:09 | 41.85042 | 2.23909 | 34141 ft | 449 kts | 168° |
| 2026-04-17 13:09 | 41.78990 | 2.26027 | 34147 ft | 449 kts | 168° |
| 2026-04-17 13:10 | 41.72846 | 2.27161 | 34153 ft | 445 kts | 178° |
| 2026-04-17 13:10 | 41.66706 | 2.27835 | 34155 ft | 446 kts | 178° |
| 2026-04-17 13:11 | 41.60524 | 2.28462 | 34155 ft | 446 kts | 178° |
| 2026-04-17 13:11 | 41.54334 | 2.29080 | 34159 ft | 446 kts | 178° |
| 2026-04-17 13:12 | 41.48140 | 2.29696 | 34157 ft | 446 kts | 178° |
| 2026-04-17 13:12 | 41.38847 | 2.30617 | 34162 ft | 447 kts | 178° |
| 2026-04-17 13:13 | 41.32636 | 2.31230 | 34157 ft | 451 kts | 178° |
| 2026-04-17 13:13 | 41.26329 | 2.31851 | 34158 ft | 457 kts | 178° |
| 2026-04-17 13:14 | 41.19981 | 2.32477 | 34164 ft | 457 kts | 178° |
| 2026-04-17 13:14 | 41.13632 | 2.33102 | 34164 ft | 457 kts | 178° |
| 2026-04-17 13:15 | 41.07310 | 2.33722 | 33750 ft | 453 kts | 178° |
| 2026-04-17 13:15 | 41.04163 | 2.34030 | 33051 ft | 453 kts | 178° |
| 2026-04-17 13:15 | 41.01011 | 2.34338 | 32312 ft | 455 kts | 178° |
| 2026-04-17 13:16 | 40.97849 | 2.34647 | 31625 ft | 456 kts | 178° |
| 2026-04-17 13:16 | 40.94702 | 2.34954 | 30920 ft | 451 kts | 177° |
| 2026-04-17 13:16 | 40.91617 | 2.35256 | 30203 ft | 450 kts | 177° |
| 2026-04-17 13:16 | 40.88457 | 2.35564 | 29597 ft | 447 kts | 177° |
| 2026-04-17 13:17 | 40.85405 | 2.35861 | 28944 ft | 445 kts | 177° |
| 2026-04-17 13:17 | 40.82309 | 2.36161 | 27694 ft | 449 kts | 177° |
| 2026-04-17 13:17 | 40.79174 | 2.36465 | 26280 ft | 455 kts | 176° |
| 2026-04-17 13:17 | 40.75997 | 2.36773 | 24865 ft | 461 kts | 176° |
| 2026-04-17 13:18 | 40.72776 | 2.37085 | 23370 ft | 466 kts | 176° |
| 2026-04-17 13:18 | 40.69531 | 2.37400 | 21723 ft | 469 kts | 176° |
| 2026-04-17 13:18 | 40.66284 | 2.37715 | 20365 ft | 465 kts | 176° |
| 2026-04-17 13:18 | 40.63080 | 2.38025 | 19144 ft | 458 kts | 176° |
| 2026-04-17 13:19 | 40.59923 | 2.38330 | 17910 ft | 451 kts | 175° |
| 2026-04-17 13:19 | 40.56821 | 2.38630 | 16606 ft | 444 kts | 175° |
| 2026-04-17 13:19 | 40.53760 | 2.38925 | 15341 ft | 437 kts | 175° |
| 2026-04-17 13:19 | 40.50753 | 2.39255 | 14130 ft | 431 kts | 172° |
| 2026-04-17 13:20 | 40.47836 | 2.40021 | 12861 ft | 423 kts | 166° |
| 2026-04-17 13:20 | 40.45012 | 2.40980 | 11703 ft | 414 kts | 165° |
| 2026-04-17 13:20 | 40.42273 | 2.41945 | 10866 ft | 399 kts | 165° |
| 2026-04-17 13:20 | 40.40533 | 2.42559 | 10518 ft | 384 kts | 165° |
| 2026-04-17 13:21 | 40.38035 | 2.43436 | 10231 ft | 358 kts | 165° |
| 2026-04-17 13:21 | 40.35700 | 2.44253 | 9930 ft | 336 kts | 165° |
| 2026-04-17 13:21 | 40.33510 | 2.45017 | 9645 ft | 316 kts | 165° |
| 2026-04-17 13:21 | 40.31439 | 2.45737 | 9279 ft | 301 kts | 165° |
| 2026-04-17 13:22 | 40.29441 | 2.46432 | 8753 ft | 295 kts | 165° |
| 2026-04-17 13:22 | 40.27473 | 2.47115 | 8168 ft | 291 kts | 165° |
| 2026-04-17 13:22 | 40.25526 | 2.47789 | 7597 ft | 288 kts | 165° |
| 2026-04-17 13:22 | 40.23605 | 2.48459 | 7033 ft | 284 kts | 164° |
| 2026-04-17 13:23 | 40.21759 | 2.49345 | 6456 ft | 281 kts | 153° |
| 2026-04-17 13:23 | 40.20147 | 2.50755 | 5874 ft | 277 kts | 137° |
| 2026-04-17 13:23 | 40.18899 | 2.52644 | 5294 ft | 274 kts | 123° |
| 2026-04-17 13:23 | 40.17908 | 2.54754 | 4714 ft | 271 kts | 120° |
| 2026-04-17 13:24 | 40.16980 | 2.56885 | 4220 ft | 268 kts | 120° |
| 2026-04-17 13:24 | 40.16065 | 2.58999 | 4011 ft | 267 kts | 120° |
| 2026-04-17 13:24 | 40.15144 | 2.61110 | 3994 ft | 267 kts | 120° |
| 2026-04-17 13:24 | 40.14221 | 2.63215 | 4053 ft | 267 kts | 120° |
| 2026-04-17 13:25 | 40.13290 | 2.65329 | 4610 ft | 271 kts | 120° |
| 2026-04-17 13:25 | 40.12342 | 2.67474 | 5384 ft | 273 kts | 119° |
| 2026-04-17 13:25 | 40.11393 | 2.69620 | 5849 ft | 273 kts | 119° |
| 2026-04-17 13:25 | 40.10440 | 2.71773 | 5986 ft | 275 kts | 119° |
| 2026-04-17 13:26 | 40.09482 | 2.73935 | 5996 ft | 276 kts | 119° |
| 2026-04-17 13:26 | 40.08520 | 2.76106 | 5998 ft | 276 kts | 119° |
| 2026-04-17 13:26 | 40.07558 | 2.78274 | 6002 ft | 276 kts | 119° |
| 2026-04-17 13:26 | 40.06595 | 2.80442 | 5996 ft | 276 kts | 119° |
| 2026-04-17 13:27 | 40.05631 | 2.82610 | 5995 ft | 276 kts | 119° |
| 2026-04-17 13:27 | 40.04681 | 2.84745 | 5993 ft | 276 kts | 119° |
| 2026-04-17 13:27 | 40.03718 | 2.86909 | 5995 ft | 276 kts | 119° |
| 2026-04-17 13:27 | 40.02975 | 2.89197 | 5995 ft | 274 kts | 101° |
| 2026-04-17 13:28 | 40.02734 | 2.91647 | 5998 ft | 273 kts | 93° |
| 2026-04-17 13:28 | 40.02616 | 2.94127 | 5992 ft | 273 kts | 92° |
| 2026-04-17 13:28 | 40.02513 | 2.96604 | 5992 ft | 273 kts | 92° |
| 2026-04-17 13:28 | 40.02411 | 2.99062 | 5994 ft | 273 kts | 92° |
| 2026-04-17 13:29 | 40.02308 | 3.01539 | 5993 ft | 273 kts | 92° |
| 2026-04-17 13:29 | 40.02202 | 3.04009 | 5995 ft | 273 kts | 92° |
| 2026-04-17 13:29 | 40.01859 | 3.06440 | 5990 ft | 274 kts | 111° |
| 2026-04-17 13:29 | 40.00961 | 3.08641 | 5995 ft | 275 kts | 120° |
| 2026-04-17 13:30 | 39.99926 | 3.10746 | 5991 ft | 276 kts | 122° |
| 2026-04-17 13:30 | 39.98872 | 3.12839 | 5995 ft | 276 kts | 122° |
| 2026-04-17 13:30 | 39.97815 | 3.14928 | 5993 ft | 276 kts | 122° |
| 2026-04-17 13:30 | 39.96754 | 3.17019 | 5994 ft | 276 kts | 122° |
| 2026-04-17 13:31 | 39.95692 | 3.19105 | 5994 ft | 277 kts | 122° |
| 2026-04-17 13:31 | 39.94392 | 3.20949 | 5981 ft | 278 kts | 144° |
| 2026-04-17 13:31 | 39.92635 | 3.21975 | 5630 ft | 279 kts | 165° |
| 2026-04-17 13:31 | 39.90736 | 3.22450 | 5233 ft | 277 kts | 175° |
| 2026-04-17 13:32 | 39.88826 | 3.22276 | 4838 ft | 275 kts | 191° |
| 2026-04-17 13:32 | 39.87081 | 3.21352 | 4405 ft | 272 kts | 217° |
| 2026-04-17 13:32 | 39.85865 | 3.19523 | 3992 ft | 268 kts | 242° |
| 2026-04-17 13:32 | 39.85150 | 3.17298 | 3746 ft | 263 kts | 251° |
| 2026-04-17 13:33 | 39.84583 | 3.15107 | 3624 ft | 251 kts | 252° |
| 2026-04-17 13:33 | 39.84056 | 3.12990 | 3528 ft | 240 kts | 252° |
| 2026-04-17 13:33 | 39.83559 | 3.10973 | 3458 ft | 229 kts | 252° |
| 2026-04-17 13:33 | 39.83074 | 3.08989 | 3123 ft | 237 kts | 252° |
| 2026-04-17 13:34 | 39.82441 | 3.06908 | 2989 ft | 253 kts | 237° |
| 2026-04-17 13:34 | 39.81252 | 3.05347 | 2992 ft | 237 kts | 212° |
| 2026-04-17 13:34 | 39.79835 | 3.04390 | 2990 ft | 222 kts | 204° |
| 2026-04-17 13:34 | 39.78467 | 3.03609 | 2989 ft | 207 kts | 203° |
| 2026-04-17 13:35 | 39.77164 | 3.02883 | 2991 ft | 202 kts | 203° |
| 2026-04-17 13:35 | 39.75873 | 3.02166 | 2991 ft | 203 kts | 203° |
| 2026-04-17 13:35 | 39.74574 | 3.01444 | 2990 ft | 203 kts | 203° |
| 2026-04-17 13:35 | 39.73290 | 3.00731 | 3019 ft | 196 kts | 203° |
| 2026-04-17 13:36 | 39.72064 | 3.00051 | 3005 ft | 188 kts | 203° |
| 2026-04-17 13:36 | 39.70858 | 2.99384 | 2994 ft | 189 kts | 203° |
| 2026-04-17 13:36 | 39.69648 | 2.98714 | 2991 ft | 189 kts | 203° |
| 2026-04-17 13:36 | 39.68434 | 2.98044 | 2992 ft | 190 kts | 203° |
| 2026-04-17 13:37 | 39.67235 | 2.97335 | 2991 ft | 190 kts | 208° |
| 2026-04-17 13:37 | 39.66111 | 2.96479 | 2990 ft | 190 kts | 211° |
| 2026-04-17 13:37 | 39.65008 | 2.95545 | 2991 ft | 190 kts | 219° |
| 2026-04-17 13:37 | 39.64109 | 2.94298 | 2989 ft | 190 kts | 235° |
| 2026-04-17 13:38 | 39.63401 | 2.92845 | 2983 ft | 189 kts | 239° |
| 2026-04-17 13:38 | 39.62728 | 2.91409 | 2744 ft | 185 kts | 238° |
| 2026-04-17 13:38 | 39.62062 | 2.90001 | 2478 ft | 181 kts | 238° |
| 2026-04-17 13:38 | 39.61410 | 2.88621 | 2227 ft | 178 kts | 238° |
| 2026-04-17 13:39 | 39.60775 | 2.87275 | 2006 ft | 170 kts | 238° |
| 2026-04-17 13:39 | 39.60176 | 2.86003 | 1774 ft | 161 kts | 238° |
| 2026-04-17 13:39 | 39.59610 | 2.84801 | 1573 ft | 149 kts | 238° |
| 2026-04-17 13:39 | 39.59095 | 2.83705 | 1377 ft | 136 kts | 238° |
| 2026-04-17 13:40 | 39.58613 | 2.82684 | 1199 ft | 131 kts | 238° |
| 2026-04-17 13:40 | 39.58141 | 2.81683 | 998 ft | 129 kts | 238° |
| 2026-04-17 13:40 | 39.57666 | 2.80686 | 907 ft | 135 kts | 237° |
| 2026-04-17 13:40 | 39.57174 | 2.79643 | 626 ft | 133 kts | 238° |
| 2026-04-17 13:41 | 39.56712 | 2.78655 | 460 ft | 126 kts | 236° |
| 2026-04-17 13:41 | 39.56259 | 2.77691 | 313 ft | 126 kts | 237° |
| 2026-04-17 13:41 | 39.55802 | 2.76734 | 162 ft | 125 kts | 237° |
| 2026-04-17 13:41 | 39.55359 | 2.75773 | 41 ft | 122 kts | 237° |
| 2026-04-17 13:42 | 39.54955 | 2.74932 | 28 ft | 99 kts | 238° |
| 2026-04-17 13:42 | 39.54691 | 2.74377 | 34 ft | 57 kts | 238° |
| 2026-04-17 13:42 | 39.54556 | 2.74016 | 34 ft | 40 kts | 262° |
| 2026-04-17 13:42 | 39.54549 | 2.73770 | 34 ft | 0 kts | 271° |
| 2026-04-17 13:43 | 39.54550 | 2.73737 | 35 ft | 14 kts | 273° |
| 2026-04-17 13:43 | 39.54587 | 2.73631 | 34 ft | 12 kts | 306° |
| 2026-04-17 13:43 | 39.54622 | 2.73617 | 35 ft | 3 kts | 24° |
| 2026-04-17 13:43 | 39.54659 | 2.73669 | 34 ft | 11 kts | 63° |
| 2026-04-17 13:44 | 39.54696 | 2.73748 | 34 ft | 10 kts | 56° |
| 2026-04-17 13:44 | 39.54731 | 2.73824 | 33 ft | 10 kts | 59° |
| 2026-04-17 13:44 | 39.54767 | 2.73901 | 33 ft | 10 kts | 59° |
| 2026-04-17 13:44 | 39.54804 | 2.73979 | 32 ft | 10 kts | 53° |
| 2026-04-17 13:45 | 39.54849 | 2.73975 | 32 ft | 7 kts | 282° |
| 2026-04-17 13:45 | 39.54847 | 2.73920 | 32 ft | 6 kts | 267° |
| 2026-04-17 13:45 | 39.54845 | 2.73866 | 32 ft | 6 kts | 268° |
| 2026-04-17 13:45 | 39.54845 | 2.73856 | 32 ft | 0 kts | 268° |